Time;durP1;ratioP1;P1;durP2;ratioP2;P2;SDS_P1;SDS_P2;PMS_P1;PMS_P2;Temp;Humidity;BMP_temperature;BMP_pressure;BME280_temperature;BME280_humidity;BME280_pressure;Samples;Min_cycle;Max_cycle;Signal;HPM_P1;HPM_P2
2022/05/31 00:01:47;;;;;;;1.98;0.85;;;11.30;78.50;;;;;;5035953;28;20036;-62
2022/05/31 00:04:13;;;;;;;1.98;0.80;;;11.30;78.60;;;;;;5031737;28;20025;-63
2022/05/31 00:06:39;;;;;;;1.60;0.80;;;11.30;78.80;;;;;;5041972;28;20028;-62
2022/05/31 00:09:05;;;;;;;3.22;1.17;;;11.20;78.90;;;;;;5037947;28;20049;-62
2022/05/31 00:11:30;;;;;;;0.90;0.70;;;11.20;79.00;;;;;;5031597;28;20417;-62
2022/05/31 00:13:56;;;;;;;1.55;1.15;;;11.20;79.20;;;;;;5036421;28;20025;-62
2022/05/31 00:16:21;;;;;;;1.88;0.95;;;11.10;79.40;;;;;;5038899;28;20096;-63
2022/05/31 00:18:47;;;;;;;2.33;0.80;;;11.10;79.60;;;;;;5029640;28;20477;-62
2022/05/31 00:21:12;;;;;;;1.83;0.90;;;11.10;79.80;;;;;;5033778;28;20033;-62
2022/05/31 00:23:40;;;;;;;1.17;0.73;;;11.10;80.00;;;;;;5037447;28;20055;-62
2022/05/31 00:26:06;;;;;;;1.60;0.82;;;11.00;80.10;;;;;;5036695;28;20041;-62
2022/05/31 00:28:32;;;;;;;1.95;1.00;;;11.00;80.30;;;;;;5041910;28;20818;-62
2022/05/31 00:30:57;;;;;;;2.95;1.00;;;11.00;80.40;;;;;;5033328;28;20037;-62
2022/05/31 00:33:24;;;;;;;1.40;1.10;;;10.90;80.50;;;;;;5038161;28;20070;-62
2022/05/31 00:35:51;;;;;;;1.77;1.10;;;10.90;80.70;;;;;;5039636;28;20017;-62
2022/05/31 00:38:17;;;;;;;1.85;0.98;;;10.80;80.80;;;;;;5029648;28;20053;-62
2022/05/31 00:40:43;;;;;;;1.73;1.30;;;10.80;80.80;;;;;;5047906;28;20071;-62
2022/05/31 00:43:14;;;;;;;1.85;1.02;;;10.80;80.80;;;;;;5040188;28;20030;-62
2022/05/31 00:45:55;;;;;;;2.22;1.05;;;10.80;80.80;;;;;;5038025;28;20025;-63
2022/05/31 00:48:30;;;;;;;1.85;0.93;;;10.80;81.00;;;;;;5036280;28;20450;-62
2022/05/31 00:51:08;;;;;;;1.55;1.00;;;10.70;81.10;;;;;;5035921;28;20031;-62
2022/05/31 00:53:40;;;;;;;1.73;1.20;;;10.70;81.10;;;;;;5039065;28;20042;-62
2022/05/31 00:56:18;;;;;;;2.40;1.15;;;10.70;81.10;;;;;;5033048;28;20477;-62
2022/05/31 00:59:20;;;;;;;1.20;1.00;;;10.70;81.20;;;;;;5039476;28;20021;-62
2022/05/31 01:01:51;;;;;;;2.17;1.10;;;10.60;81.20;;;;;;5038636;28;20512;-62
2022/05/31 01:04:19;;;;;;;1.42;1.10;;;10.50;81.40;;;;;;5030845;28;20021;-62
2022/05/31 01:06:44;;;;;;;1.65;0.95;;;10.50;81.50;;;;;;5032160;28;20109;-62
2022/05/31 01:09:10;;;;;;;1.83;1.00;;;10.50;81.70;;;;;;5039974;28;20314;-62
2022/05/31 01:11:40;;;;;;;2.05;1.30;;;10.40;81.80;;;;;;5036406;28;20025;-62
2022/05/31 01:14:07;;;;;;;2.50;1.33;;;10.50;82.00;;;;;;5035108;28;20025;-62
2022/05/31 01:16:33;;;;;;;2.35;1.70;;;10.40;82.20;;;;;;5032303;28;20441;-62
2022/05/31 01:18:59;;;;;;;2.55;1.58;;;10.40;82.30;;;;;;5037428;28;20068;-62
2022/05/31 01:21:26;;;;;;;2.42;1.75;;;10.30;82.40;;;;;;5049168;28;20105;-62
2022/05/31 01:24:14;;;;;;;2.22;1.60;;;10.30;82.60;;;;;;5046105;28;20174;-62
2022/05/31 01:26:51;;;;;;;2.05;1.60;;;10.30;82.70;;;;;;5036528;28;20013;-62
2022/05/31 01:29:27;;;;;;;2.80;1.52;;;10.30;82.80;;;;;;5034542;28;20389;-62
2022/05/31 01:31:59;;;;;;;1.95;1.15;;;10.30;82.90;;;;;;5038079;28;20032;-62
2022/05/31 01:34:41;;;;;;;2.58;1.63;;;10.20;83.00;;;;;;5038435;28;20032;-62
2022/05/31 01:37:07;;;;;;;2.72;1.42;;;10.20;83.00;;;;;;5042492;28;20465;-62
2022/05/31 01:39:42;;;;;;;1.90;1.33;;;10.20;83.10;;;;;;5030544;28;20022;-62
2022/05/31 01:42:18;;;;;;;1.63;1.50;;;10.20;83.30;;;;;;5036018;28;20511;-62
2022/05/31 01:44:48;;;;;;;2.50;1.83;;;10.20;83.30;;;;;;5031352;28;20112;-62
2022/05/31 01:47:15;;;;;;;2.55;1.52;;;10.20;83.50;;;;;;5029858;28;20469;-62
2022/05/31 01:49:44;;;;;;;1.80;1.15;;;10.20;83.70;;;;;;5034934;28;20069;-62
2022/05/31 01:52:11;;;;;;;2.97;1.83;;;10.20;83.80;;;;;;5028845;28;20049;-62
2022/05/31 01:54:39;;;;;;;2.78;1.85;;;10.20;83.90;;;;;;5036418;28;20409;-62
2022/05/31 01:57:09;;;;;;;2.55;1.38;;;10.20;84.10;;;;;;5036609;28;20080;-62
2022/05/31 01:59:41;;;;;;;2.58;1.20;;;10.10;84.20;;;;;;5032089;28;20083;-63
2022/05/31 02:02:06;;;;;;;2.10;1.67;;;10.10;84.30;;;;;;5032849;28;20056;-62
2022/05/31 02:04:32;;;;;;;3.13;1.75;;;10.10;84.40;;;;;;5030600;28;20065;-62
2022/05/31 02:07:15;;;;;;;1.98;1.38;;;10.10;84.60;;;;;;5030842;28;20028;-62
2022/05/31 02:09:42;;;;;;;1.95;1.42;;;10.20;84.70;;;;;;5037796;28;20026;-62
2022/05/31 02:12:11;;;;;;;1.92;1.30;;;10.10;84.90;;;;;;5037907;28;20091;-62
2022/05/31 02:14:37;;;;;;;2.88;1.45;;;10.10;85.00;;;;;;5036115;28;20448;-62
2022/05/31 02:17:03;;;;;;;2.88;1.60;;;10.10;85.20;;;;;;5038090;28;20095;-62
2022/05/31 02:19:29;;;;;;;2.20;1.65;;;10.00;85.30;;;;;;5035943;28;20029;-62
2022/05/31 02:21:57;;;;;;;2.45;1.58;;;10.00;85.50;;;;;;5035119;28;20025;-63
2022/05/31 02:24:24;;;;;;;2.10;1.52;;;10.00;85.60;;;;;;5037528;28;20021;-62
2022/05/31 02:26:50;;;;;;;2.30;1.50;;;10.00;85.80;;;;;;5032599;28;20392;-63
2022/05/31 02:29:19;;;;;;;4.65;1.70;;;10.00;86.10;;;;;;5038255;28;20378;-62
2022/05/31 02:31:45;;;;;;;2.67;1.83;;;10.00;86.30;;;;;;5037335;28;20021;-62
2022/05/31 02:34:12;;;;;;;2.80;2.00;;;9.90;86.50;;;;;;5034160;28;20021;-62
2022/05/31 02:36:38;;;;;;;2.15;1.75;;;9.90;86.70;;;;;;5031299;28;20049;-62
2022/05/31 02:39:04;;;;;;;5.15;2.08;;;9.90;86.90;;;;;;5031670;28;20095;-62
2022/05/31 02:41:31;;;;;;;2.15;1.73;;;9.80;87.10;;;;;;5031644;28;20016;-62
2022/05/31 02:43:57;;;;;;;2.80;1.67;;;9.80;87.40;;;;;;5033973;28;20079;-62
2022/05/31 02:46:24;;;;;;;2.53;1.63;;;9.80;87.70;;;;;;5030017;28;20025;-62
2022/05/31 02:48:50;;;;;;;3.80;2.42;;;9.70;87.90;;;;;;5035343;28;20025;-62
2022/05/31 02:51:16;;;;;;;2.83;1.90;;;9.70;88.00;;;;;;5030929;28;20029;-62
2022/05/31 02:53:41;;;;;;;3.03;1.98;;;9.70;88.20;;;;;;5032424;28;20028;-63
2022/05/31 02:56:07;;;;;;;2.97;1.85;;;9.70;88.30;;;;;;5030448;28;20037;-62
2022/05/31 02:58:33;;;;;;;3.65;2.10;;;9.70;88.50;;;;;;5031719;28;20761;-62
2022/05/31 03:00:59;;;;;;;2.35;1.85;;;9.60;88.60;;;;;;5036674;28;20025;-62
2022/05/31 03:03:25;;;;;;;2.45;1.67;;;9.70;88.80;;;;;;5035105;28;20047;-62
2022/05/31 03:05:51;;;;;;;3.15;1.85;;;9.70;89.00;;;;;;5029319;28;20025;-62
2022/05/31 03:08:17;;;;;;;2.38;2.05;;;9.60;89.00;;;;;;5039230;28;20064;-62
2022/05/31 03:10:48;;;;;;;2.50;1.75;;;9.60;89.10;;;;;;5035198;28;20033;-62
2022/05/31 03:13:19;;;;;;;3.30;2.20;;;9.60;89.20;;;;;;5043338;28;20037;-62
2022/05/31 03:15:45;;;;;;;2.40;2.17;;;9.60;89.30;;;;;;5032971;28;20033;-62
2022/05/31 03:18:17;;;;;;;4.03;2.40;;;9.60;89.50;;;;;;5017616;28;20021;-62
2022/05/31 03:20:47;;;;;;;3.00;2.20;;;9.60;89.60;;;;;;5057532;28;20043;-62
2022/05/31 03:23:21;;;;;;;3.45;2.05;;;9.60;89.70;;;;;;5048604;28;20358;-62
2022/05/31 03:25:48;;;;;;;3.03;2.13;;;9.70;89.70;;;;;;5034905;28;20030;-62
2022/05/31 03:28:16;;;;;;;2.65;2.10;;;9.60;89.80;;;;;;5039231;28;20586;-62
2022/05/31 03:30:41;;;;;;;3.53;2.10;;;9.60;89.90;;;;;;5040782;28;20040;-62
2022/05/31 03:33:10;;;;;;;3.35;2.10;;;9.60;90.00;;;;;;5044564;28;20025;-62
2022/05/31 03:35:36;;;;;;;2.47;1.88;;;9.60;90.00;;;;;;5041575;28;20024;-62
2022/05/31 03:38:03;;;;;;;4.28;2.20;;;9.70;90.10;;;;;;5056275;28;20075;-62
2022/05/31 03:43:12;;;;;;;2.80;1.90;;;9.60;90.20;;;;;;5040514;28;20032;-62
2022/05/31 03:45:40;;;;;;;3.33;2.17;;;9.70;90.20;;;;;;5034586;28;20026;-62
2022/05/31 03:48:07;;;;;;;2.40;1.73;;;9.60;90.30;;;;;;5036171;28;20365;-62
2022/05/31 03:50:33;;;;;;;3.20;2.15;;;9.60;90.30;;;;;;5042199;28;20104;-62
2022/05/31 03:53:00;;;;;;;3.38;2.20;;;9.60;90.40;;;;;;5036855;28;20072;-62
2022/05/31 03:55:26;;;;;;;2.92;1.80;;;9.60;90.40;;;;;;5031574;28;20079;-62
2022/05/31 03:57:52;;;;;;;3.03;2.33;;;9.70;90.50;;;;;;5031413;28;20025;-62
2022/05/31 04:00:19;;;;;;;2.97;2.20;;;9.70;90.60;;;;;;5037474;28;20037;-62
2022/05/31 04:02:45;;;;;;;3.67;2.40;;;9.70;90.60;;;;;;5035758;28;20017;-62
2022/05/31 04:05:12;;;;;;;3.28;2.20;;;9.70;90.70;;;;;;5037731;28;20030;-62
2022/05/31 04:07:37;;;;;;;4.82;2.58;;;9.70;90.70;;;;;;5036587;28;20029;-62
2022/05/31 04:10:05;;;;;;;4.70;1.95;;;9.70;90.80;;;;;;5036559;28;20018;-62
2022/05/31 04:12:34;;;;;;;2.40;1.95;;;9.70;90.80;;;;;;5036676;28;20071;-63
2022/05/31 04:14:59;;;;;;;2.08;1.88;;;9.80;90.90;;;;;;5048791;28;20405;-62
2022/05/31 04:17:25;;;;;;;4.32;2.13;;;9.80;90.90;;;;;;5033202;28;20036;-62
2022/05/31 04:19:50;;;;;;;3.13;2.13;;;9.80;90.90;;;;;;5033804;28;20020;-62
2022/05/31 04:22:16;;;;;;;3.45;2.53;;;9.80;90.90;;;;;;5033712;28;20379;-63
2022/05/31 04:24:42;;;;;;;4.03;2.30;;;9.80;90.90;;;;;;5038505;28;20056;-63
2022/05/31 04:27:13;;;;;;;3.13;2.38;;;9.80;91.00;;;;;;5038162;28;20445;-62
2022/05/31 04:29:39;;;;;;;4.03;2.40;;;9.80;91.00;;;;;;5038436;28;20033;-62
2022/05/31 04:32:05;;;;;;;2.33;1.83;;;9.90;91.10;;;;;;5039133;28;20024;-62
2022/05/31 04:34:30;;;;;;;3.92;2.13;;;9.90;91.10;;;;;;5038569;28;20013;-62
2022/05/31 04:36:56;;;;;;;3.67;2.17;;;9.90;91.10;;;;;;5036627;28;20033;-62
2022/05/31 04:39:22;;;;;;;3.88;2.40;;;9.90;91.10;;;;;;5038797;28;20108;-62
2022/05/31 04:41:47;;;;;;;2.80;2.13;;;9.90;91.10;;;;;;5038358;28;20093;-62
2022/05/31 04:44:15;;;;;;;2.72;2.05;;;9.90;91.10;;;;;;5037887;28;20469;-62
2022/05/31 04:46:42;;;;;;;3.25;2.42;;;10.00;91.20;;;;;;5038863;28;20027;-62
2022/05/31 04:49:08;;;;;;;4.35;2.90;;;10.00;91.20;;;;;;5038142;28;20063;-62
2022/05/31 04:51:34;;;;;;;3.42;2.30;;;10.00;91.30;;;;;;5032703;28;20493;-62
2022/05/31 04:54:01;;;;;;;3.22;2.58;;;10.00;91.30;;;;;;5043983;28;20048;-62
2022/05/31 04:56:27;;;;;;;3.20;2.75;;;10.00;91.40;;;;;;5039360;28;20025;-62
2022/05/31 04:58:53;;;;;;;3.67;2.65;;;10.10;91.40;;;;;;5039348;28;20042;-62
2022/05/31 05:01:20;;;;;;;3.42;2.42;;;10.10;91.50;;;;;;5030411;28;20022;-62
2022/05/31 05:03:46;;;;;;;3.15;2.15;;;10.20;91.60;;;;;;5034447;28;20014;-62
2022/05/31 05:06:14;;;;;;;3.33;2.15;;;10.20;91.60;;;;;;5034837;28;20035;-62
2022/05/31 05:08:40;;;;;;;4.95;2.50;;;10.20;91.70;;;;;;5028932;28;20029;-62
2022/05/31 05:11:09;;;;;;;3.78;2.22;;;10.20;91.70;;;;;;5040373;28;20024;-62
2022/05/31 05:13:35;;;;;;;4.15;2.88;;;10.30;91.70;;;;;;5038555;28;20049;-62
2022/05/31 05:16:01;;;;;;;6.18;3.45;;;10.30;91.90;;;;;;5040193;28;20033;-62
2022/05/31 05:18:29;;;;;;;3.80;2.70;;;10.30;91.90;;;;;;5048125;28;20036;-62
2022/05/31 05:20:55;;;;;;;5.18;3.38;;;10.30;92.00;;;;;;5049240;28;20440;-62
2022/05/31 05:23:20;;;;;;;4.32;3.60;;;10.40;92.00;;;;;;5044297;28;20094;-62
2022/05/31 05:25:55;;;;;;;4.68;3.80;;;10.40;92.10;;;;;;5044451;28;20491;-62
2022/05/31 05:31:25;;;;;;;3.85;3.40;;;10.50;92.10;;;;;;5055391;28;20048;-62
2022/05/31 05:33:51;;;;;;;4.47;3.25;;;10.60;92.20;;;;;;5036607;28;20022;-62
2022/05/31 05:36:17;;;;;;;5.15;3.20;;;10.70;92.20;;;;;;5052871;28;20021;-62
2022/05/31 05:38:43;;;;;;;3.75;3.30;;;10.70;92.20;;;;;;5038794;28;20021;-62
2022/05/31 05:41:10;;;;;;;5.22;3.90;;;10.80;92.30;;;;;;5036617;28;20034;-62
2022/05/31 05:43:35;;;;;;;4.32;3.42;;;10.80;92.30;;;;;;5038793;28;20036;-62
2022/05/31 05:46:01;;;;;;;6.50;3.78;;;10.90;92.40;;;;;;5053066;28;20481;-62
2022/05/31 05:48:27;;;;;;;4.85;4.30;;;11.00;92.40;;;;;;5049710;28;20072;-62
2022/05/31 05:50:52;;;;;;;8.32;4.60;;;11.00;92.40;;;;;;5039678;28;20056;-62
2022/05/31 05:53:18;;;;;;;5.45;4.20;;;11.10;92.50;;;;;;5048740;28;20068;-62
2022/05/31 05:55:43;;;;;;;5.10;3.78;;;11.10;92.50;;;;;;5037927;28;20041;-62
2022/05/31 05:58:09;;;;;;;4.35;3.50;;;11.20;92.50;;;;;;5035395;28;20037;-62
2022/05/31 06:00:46;;;;;;;4.25;3.63;;;11.30;92.40;;;;;;5048406;28;20049;-62
2022/05/31 06:03:24;;;;;;;5.05;4.10;;;11.30;92.40;;;;;;5039288;28;20079;-62
2022/05/31 06:05:51;;;;;;;6.80;4.80;;;11.40;92.40;;;;;;5043871;28;21235;-62
2022/05/31 06:08:25;;;;;;;6.00;4.10;;;11.40;92.40;;;;;;5049228;28;20047;-62
2022/05/31 06:11:02;;;;;;;5.28;4.13;;;11.50;92.40;;;;;;5035500;28;20096;-62
2022/05/31 06:13:35;;;;;;;6.28;4.35;;;11.50;92.40;;;;;;5033001;28;20026;-62
2022/05/31 06:16:05;;;;;;;5.20;3.63;;;11.60;92.40;;;;;;5044251;28;20033;-62
2022/05/31 06:18:44;;;;;;;5.72;4.05;;;11.60;92.40;;;;;;5031028;28;20083;-62
2022/05/31 06:21:11;;;;;;;5.25;3.25;;;11.70;92.20;;;;;;5046080;28;20029;-62
2022/05/31 06:23:38;;;;;;;8.20;4.63;;;11.70;92.20;;;;;;5046419;28;20017;-62
2022/05/31 06:26:03;;;;;;;7.38;5.35;;;11.80;92.10;;;;;;5028488;28;20017;-62
2022/05/31 06:28:29;;;;;;;5.40;3.55;;;11.90;92.00;;;;;;5045326;28;20029;-62
2022/05/31 06:30:54;;;;;;;6.88;4.22;;;11.90;92.20;;;;;;5033097;28;20112;-62
2022/05/31 06:33:20;;;;;;;7.28;4.10;;;12.00;91.70;;;;;;5048431;28;20037;-62
2022/05/31 06:35:45;;;;;;;10.55;5.50;;;12.00;91.50;;;;;;5047813;28;20037;-62
2022/05/31 06:38:11;;;;;;;6.30;4.68;;;12.10;91.30;;;;;;5049318;28;20057;-62
2022/05/31 06:40:39;;;;;;;4.63;3.47;;;12.20;91.10;;;;;;5045871;28;20459;-62
2022/05/31 06:43:05;;;;;;;3.88;3.08;;;12.20;91.00;;;;;;5051484;28;20047;-62
2022/05/31 06:45:30;;;;;;;5.57;3.67;;;12.30;90.90;;;;;;5046464;28;20473;-62
2022/05/31 06:47:56;;;;;;;5.50;3.38;;;12.30;90.70;;;;;;5044741;28;20036;-62
2022/05/31 06:50:21;;;;;;;7.00;3.35;;;12.40;90.60;;;;;;5045542;28;20029;-62
2022/05/31 06:58:15;;;;;;;9.95;5.38;;;12.60;89.90;;;;;;5045102;28;20491;-62
2022/05/31 07:00:40;;;;;;;6.38;3.85;;;12.70;89.10;;;;;;5046274;28;20025;-63
2022/05/31 07:03:06;;;;;;;5.18;3.90;;;12.70;88.90;;;;;;5048988;28;20021;-62
2022/05/31 07:05:31;;;;;;;6.45;3.72;;;12.80;88.40;;;;;;5045981;28;20021;-62
2022/05/31 07:07:57;;;;;;;7.38;3.88;;;12.80;88.30;;;;;;5046409;28;20040;-62
2022/05/31 07:10:23;;;;;;;6.43;4.05;;;12.90;87.50;;;;;;5043551;28;20028;-62
2022/05/31 07:12:48;;;;;;;7.15;3.78;;;12.90;87.00;;;;;;5049288;28;20029;-62
2022/05/31 07:15:14;;;;;;;7.68;3.97;;;12.90;86.10;;;;;;5047899;28;20048;-62
2022/05/31 07:17:40;;;;;;;7.60;3.47;;;13.00;85.00;;;;;;5049785;28;20079;-62
2022/05/31 07:20:08;;;;;;;4.90;2.92;;;13.10;84.90;;;;;;5030533;28;20117;-62
2022/05/31 07:22:35;;;;;;;6.85;3.70;;;13.20;84.90;;;;;;5033772;28;20108;-62
2022/05/31 07:25:01;;;;;;;5.90;3.35;;;13.30;84.40;;;;;;5036899;28;20091;-62
2022/05/31 07:27:27;;;;;;;5.40;3.97;;;13.40;84.10;;;;;;5047912;28;20032;-62
2022/05/31 07:29:53;;;;;;;5.22;3.72;;;13.40;83.00;;;;;;5034772;28;20100;-63
2022/05/31 07:32:19;;;;;;;6.30;4.65;;;13.40;84.00;;;;;;5043522;28;20064;-62
2022/05/31 07:34:45;;;;;;;6.65;3.88;;;13.50;84.00;;;;;;5045597;28;20432;-62
2022/05/31 07:37:12;;;;;;;6.90;4.07;;;13.50;82.70;;;;;;5044313;28;20032;-62
2022/05/31 07:39:38;;;;;;;8.15;4.63;;;13.50;83.00;;;;;;5031755;28;20022;-62
2022/05/31 07:42:04;;;;;;;6.88;4.05;;;13.60;82.80;;;;;;5039364;28;20029;-62
2022/05/31 07:44:30;;;;;;;6.65;3.78;;;13.70;82.70;;;;;;5031880;28;20079;-62
2022/05/31 07:46:56;;;;;;;5.57;4.32;;;13.70;82.50;;;;;;5036669;28;20014;-62
2022/05/31 07:49:22;;;;;;;7.25;4.40;;;13.80;81.70;;;;;;5044395;28;20527;-62
2022/05/31 07:51:49;;;;;;;5.10;3.80;;;13.70;81.60;;;;;;5031287;28;20045;-62
2022/05/31 07:54:14;;;;;;;9.07;4.68;;;13.80;82.10;;;;;;5033788;28;20025;-62
2022/05/31 07:56:40;;;;;;;8.00;4.90;;;13.90;82.00;;;;;;5033844;28;20029;-62
2022/05/31 07:59:06;;;;;;;6.22;3.53;;;14.00;80.70;;;;;;5039211;28;20045;-62
2022/05/31 08:01:31;;;;;;;7.13;5.18;;;14.10;81.10;;;;;;5042854;28;20021;-62
2022/05/31 08:03:57;;;;;;;6.05;4.00;;;14.20;80.00;;;;;;5035105;28;20030;-62
2022/05/31 08:06:28;;;;;;;6.95;4.30;;;14.40;80.20;;;;;;5034695;28;20093;-62
2022/05/31 08:08:54;;;;;;;8.10;5.03;;;14.50;80.20;;;;;;5048274;28;20030;-62
2022/05/31 08:11:25;;;;;;;6.07;4.30;;;14.70;79.70;;;;;;5034986;28;20033;-62
2022/05/31 08:13:53;;;;;;;12.02;4.75;;;14.70;79.20;;;;;;5042440;28;20037;-63
2022/05/31 08:16:21;;;;;;;6.63;4.25;;;14.70;76.90;;;;;;5036226;28;20106;-63
2022/05/31 08:18:48;;;;;;;6.95;4.53;;;14.70;75.30;;;;;;5048880;28;20021;-63
2022/05/31 08:21:17;;;;;;;4.60;3.30;;;14.70;74.90;;;;;;5034619;28;20024;-62
2022/05/31 08:24:23;;;;;;;5.15;4.05;;;14.70;74.60;;;;;;5041577;28;20017;-62
2022/05/31 08:26:49;;;;;;;4.15;3.22;;;14.70;74.70;;;;;;5034476;28;20036;-62
2022/05/31 08:29:16;;;;;;;5.85;3.40;;;14.60;73.80;;;;;;5047117;28;20401;-62
2022/05/31 08:31:41;;;;;;;4.75;3.33;;;14.70;74.80;;;;;;5037404;28;20017;-62
2022/05/31 08:34:07;;;;;;;5.57;3.15;;;14.90;75.10;;;;;;5039698;28;20049;-63
2022/05/31 08:36:33;;;;;;;3.85;2.28;;;15.00;75.30;;;;;;5035974;28;20037;-62
2022/05/31 08:39:00;;;;;;;5.80;2.67;;;15.20;75.30;;;;;;5034074;28;20026;-62
2022/05/31 08:41:27;;;;;;;3.95;2.60;;;15.40;74.70;;;;;;5044286;28;20029;-62
2022/05/31 08:44:04;;;;;;;4.93;3.35;;;15.60;74.30;;;;;;5036782;28;20101;-62
2022/05/31 08:46:36;;;;;;;4.47;2.83;;;15.80;72.50;;;;;;5045157;28;20033;-62
2022/05/31 08:49:07;;;;;;;5.03;2.35;;;16.00;71.30;;;;;;5033731;28;20488;-62
2022/05/31 08:51:58;;;;;;;3.25;2.17;;;16.20;70.60;;;;;;5043613;28;20060;-62
2022/05/31 08:57:54;;;;;;;5.93;2.90;;;16.20;67.20;;;;;;5037396;28;20047;-62
2022/05/31 09:00:38;;;;;;;6.72;3.55;;;16.00;66.90;;;;;;5046185;28;20044;-62
2022/05/31 09:03:20;;;;;;;7.10;3.28;;;15.80;66.90;;;;;;5033935;28;20060;-62
2022/05/31 09:05:56;;;;;;;4.75;3.00;;;15.80;67.10;;;;;;5041329;28;20013;-62
2022/05/31 09:08:59;;;;;;;5.82;3.10;;;15.80;67.30;;;;;;5048771;28;20029;-62
2022/05/31 09:11:59;;;;;;;6.95;3.33;;;15.90;67.50;;;;;;5045585;28;20064;-62
2022/05/31 09:14:50;;;;;;;5.75;3.63;;;15.90;67.80;;;;;;5033707;28;20029;-63
2022/05/31 09:17:32;;;;;;;4.43;2.97;;;16.10;68.40;;;;;;5033733;28;20017;-62
2022/05/31 09:19:57;;;;;;;6.03;3.97;;;16.20;68.50;;;;;;5032233;28;20037;-62
2022/05/31 09:22:23;;;;;;;4.28;3.22;;;16.40;68.40;;;;;;5033704;28;20029;-62
2022/05/31 09:24:48;;;;;;;7.22;4.22;;;16.50;67.50;;;;;;5032900;28;20362;-62
2022/05/31 09:27:24;;;;;;;5.15;3.47;;;16.50;67.60;;;;;;5033822;28;20017;-62
2022/05/31 09:29:56;;;;;;;5.03;3.72;;;16.40;66.30;;;;;;5033600;28;20068;-63
2022/05/31 09:32:46;;;;;;;5.22;3.53;;;16.30;67.70;;;;;;5034367;28;20024;-62
2022/05/31 09:35:31;;;;;;;4.95;2.92;;;16.20;67.40;;;;;;5041474;28;20033;-62
2022/05/31 09:38:18;;;;;;;3.67;2.63;;;16.20;67.60;;;;;;5032745;28;20116;-62
2022/05/31 09:41:07;;;;;;;3.40;2.38;;;16.30;68.80;;;;;;5033624;28;20021;-62
2022/05/31 09:43:39;;;;;;;4.28;2.45;;;16.40;68.40;;;;;;5033278;28;20017;-62
2022/05/31 09:46:11;;;;;;;3.80;2.20;;;16.50;66.60;;;;;;5033291;28;20032;-62
2022/05/31 09:48:53;;;;;;;6.10;2.60;;;16.50;66.40;;;;;;5032944;28;20025;-63
2022/05/31 09:51:35;;;;;;;4.10;2.00;;;16.60;66.90;;;;;;5050312;28;20104;-62
2022/05/31 09:59:30;;;;;;;4.95;3.20;;;16.50;65.40;;;;;;5036814;28;20036;-62
2022/05/31 10:02:25;;;;;;;4.55;2.60;;;16.50;64.70;;;;;;5031340;28;20033;-62
2022/05/31 10:05:21;;;;;;;4.50;2.60;;;16.50;65.50;;;;;;5038484;28;20049;-62
2022/05/31 10:07:48;;;;;;;3.90;2.22;;;16.60;67.20;;;;;;5051127;28;20029;-62
2022/05/31 10:10:48;;;;;;;4.72;2.40;;;16.70;65.40;;;;;;5039061;28;20022;-63
2022/05/31 10:13:33;;;;;;;4.88;2.50;;;16.80;64.50;;;;;;5041483;28;20373;-62
2022/05/31 10:16:09;;;;;;;3.05;1.77;;;16.90;61.70;;;;;;5050183;28;20021;-63
2022/05/31 10:18:49;;;;;;;5.28;2.45;;;17.00;61.80;;;;;;5047783;28;20108;-62
2022/05/31 10:21:26;;;;;;;4.05;2.42;;;17.00;63.40;;;;;;5049987;28;20056;-62
2022/05/31 10:23:52;;;;;;;5.05;3.05;;;17.10;62.70;;;;;;5038730;28;20022;-62
2022/05/31 10:26:24;;;;;;;3.78;1.83;;;17.10;62.90;;;;;;5033414;28;20018;-62
2022/05/31 10:28:58;;;;;;;4.07;2.30;;;17.20;62.70;;;;;;5031428;28;20036;-62
2022/05/31 10:31:43;;;;;;;3.55;2.00;;;17.30;61.00;;;;;;5036329;28;20060;-62
2022/05/31 10:34:40;;;;;;;4.00;2.63;;;17.40;58.80;;;;;;5030117;28;20072;-62
2022/05/31 10:37:22;;;;;;;3.40;2.10;;;17.50;58.70;;;;;;5035861;28;20420;-62
2022/05/31 10:40:00;;;;;;;6.32;2.70;;;17.60;59.30;;;;;;5039215;28;20028;-62
2022/05/31 10:42:26;;;;;;;2.60;1.40;;;17.80;58.40;;;;;;5034362;28;20022;-62
2022/05/31 10:44:56;;;;;;;2.88;1.70;;;17.90;58.60;;;;;;5032079;28;20060;-63
2022/05/31 10:47:24;;;;;;;4.43;1.92;;;18.10;58.70;;;;;;5035144;28;20420;-62
2022/05/31 10:49:50;;;;;;;2.30;1.42;;;18.20;56.60;;;;;;5036940;28;20029;-62
2022/05/31 10:52:16;;;;;;;1.80;1.05;;;18.20;57.10;;;;;;5045003;28;20047;-62
2022/05/31 10:54:51;;;;;;;5.95;2.35;;;18.50;57.70;;;;;;5048575;28;20021;-62
2022/05/31 10:57:32;;;;;;;5.80;3.00;;;18.70;58.40;;;;;;5046105;28;20108;-62
2022/05/31 11:00:17;;;;;;;5.03;2.88;;;18.70;56.70;;;;;;5050218;28;20021;-62
2022/05/31 11:03:08;;;;;;;4.63;2.83;;;18.70;56.70;;;;;;5048050;28;20013;-62
2022/05/31 11:05:57;;;;;;;3.72;2.50;;;18.90;57.10;;;;;;5043641;28;20087;-62
2022/05/31 11:11:45;;;;;;;2.90;2.00;;;19.20;56.00;;;;;;5049863;28;20039;-63
2022/05/31 11:14:18;;;;;;;2.92;1.65;;;19.50;55.50;;;;;;5044953;28;20283;-63
2022/05/31 11:16:46;;;;;;;4.32;2.08;;;19.70;54.30;;;;;;5049731;28;20104;-63
2022/05/31 11:19:21;;;;;;;2.55;1.55;;;19.80;54.00;;;;;;5049089;28;20035;-63
2022/05/31 11:21:52;;;;;;;2.65;1.38;;;19.80;53.30;;;;;;5063394;28;20084;-63
2022/05/31 11:24:36;;;;;;;4.60;1.98;;;19.90;53.20;;;;;;5042374;28;20028;-63
2022/05/31 11:27:24;;;;;;;3.75;1.83;;;19.80;52.20;;;;;;5036059;28;20399;-63
2022/05/31 11:30:18;;;;;;;2.63;1.25;;;19.80;51.30;;;;;;5048534;28;20033;-63
2022/05/31 11:32:52;;;;;;;1.98;1.20;;;19.80;51.00;;;;;;5035763;28;20108;-63
2022/05/31 11:35:50;;;;;;;1.70;0.88;;;19.80;51.90;;;;;;5037458;28;20025;-63
2022/05/31 11:38:25;;;;;;;2.55;0.90;;;20.00;51.60;;;;;;5038974;28;20029;-63
2022/05/31 11:40:50;;;;;;;4.82;1.20;;;20.20;51.80;;;;;;5050671;28;20029;-63
2022/05/31 11:43:54;;;;;;;2.45;1.10;;;20.20;51.00;;;;;;5050431;28;20028;-63
2022/05/31 11:46:43;;;;;;;3.58;0.80;;;20.40;51.30;;;;;;5044534;28;20032;-63
2022/05/31 11:49:33;;;;;;;2.13;1.05;;;20.80;51.60;;;;;;5035568;28;20037;-63
2022/05/31 11:52:21;;;;;;;;;;;21.00;49.00;;;;;;5036136;28;20053;-63
2022/05/31 11:55:26;;;;;;;1.42;0.85;;;20.90;47.70;;;;;;5035442;28;19904;-63
2022/05/31 11:58:16;;;;;;;2.03;0.55;;;21.10;48.10;;;;;;5040812;28;20059;-63
2022/05/31 12:00:51;;;;;;;1.52;0.73;;;21.50;48.20;;;;;;5049711;28;20024;-63
2022/05/31 12:03:20;;;;;;;1.38;0.50;;;21.70;47.60;;;;;;5047230;28;20104;-63
2022/05/31 12:05:53;;;;;;;0.60;0.40;;;21.90;47.50;;;;;;5048716;28;20067;-63
2022/05/31 12:08:29;;;;;;;1.35;0.50;;;22.10;47.30;;;;;;5051458;28;20028;-63
2022/05/31 12:11:00;;;;;;;1.80;0.43;;;22.30;47.10;;;;;;5050767;28;20499;-63
2022/05/31 12:13:27;;;;;;;1.33;0.80;;;22.40;47.00;;;;;;5050736;28;20469;-63
2022/05/31 12:15:54;;;;;;;0.60;0.40;;;22.50;46.80;;;;;;5033558;28;20040;-63
2022/05/31 12:18:47;;;;;;;1.60;0.52;;;22.60;46.70;;;;;;5035232;28;20505;-63
2022/05/31 12:21:38;;;;;;;0.80;0.52;;;22.70;46.40;;;;;;5034534;28;20033;-63
2022/05/31 12:24:12;;;;;;;1.00;0.50;;;22.60;46.20;;;;;;5035113;28;20075;-63
2022/05/31 12:26:50;;;;;;;1.13;0.60;;;22.50;46.60;;;;;;5049425;28;20103;-63
2022/05/31 12:29:22;;;;;;;1.75;0.80;;;22.40;46.40;;;;;;5054279;28;20036;-62
2022/05/31 12:31:48;;;;;;;0.93;0.60;;;22.30;46.70;;;;;;5052445;28;20032;-62
2022/05/31 12:34:19;;;;;;;0.85;0.50;;;22.30;46.80;;;;;;5038529;28;20021;-63
2022/05/31 12:37:14;;;;;;;2.05;0.65;;;22.30;46.90;;;;;;5053910;28;20040;-63
2022/05/31 12:39:42;;;;;;;1.25;0.70;;;22.30;46.60;;;;;;5036671;28;20025;-63
2022/05/31 12:42:14;;;;;;;3.63;1.10;;;22.30;46.00;;;;;;5047632;28;20025;-63
2022/05/31 12:44:42;;;;;;;2.85;1.40;;;22.00;45.00;;;;;;5043828;28;20404;-63
2022/05/31 12:47:30;;;;;;;3.33;2.08;;;21.90;46.40;;;;;;5039940;28;20029;-62
2022/05/31 12:50:02;;;;;;;2.85;1.55;;;21.70;46.30;;;;;;5039754;28;20082;-62
2022/05/31 12:55:22;;;;;;;4.00;1.92;;;21.00;48.30;;;;;;5034138;28;20056;-62
2022/05/31 13:00:49;;;;;;;2.92;1.58;;;21.10;49.50;;;;;;5047326;28;20596;-62
2022/05/31 13:03:33;;;;;;;2.90;1.65;;;21.20;49.30;;;;;;5050382;28;20388;-62
2022/05/31 13:06:07;;;;;;;2.97;2.22;;;21.20;48.90;;;;;;5044071;28;20022;-62
2022/05/31 13:08:48;;;;;;;4.30;1.90;;;21.00;48.30;;;;;;5037734;28;20045;-63
2022/05/31 13:19:41;;;;;;;3.63;2.25;;;21.70;48.70;;;;;;5043767;28;20035;-62
2022/05/31 13:22:10;;;;;;;3.58;2.00;;;21.80;48.50;;;;;;5042527;28;20091;-63
2022/05/31 13:24:43;;;;;;;2.92;1.90;;;21.50;47.60;;;;;;5039315;28;20029;-62
2022/05/31 13:27:09;;;;;;;4.78;2.50;;;21.10;49.00;;;;;;5051147;28;20052;-62
2022/05/31 13:29:35;;;;;;;3.85;2.13;;;21.00;49.50;;;;;;5050467;28;20021;-63
2022/05/31 13:32:01;;;;;;;3.35;1.27;;;20.80;48.30;;;;;;5041654;28;20040;-62
2022/05/31 13:34:35;;;;;;;5.00;2.90;;;20.80;48.70;;;;;;5038070;28;20016;-63
2022/05/31 13:37:03;;;;;;;5.97;3.30;;;20.90;48.80;;;;;;5039852;28;20468;-62
2022/05/31 13:39:31;;;;;;;2.85;2.15;;;20.60;48.70;;;;;;5033174;28;20017;-63
2022/05/31 13:42:01;;;;;;;2.95;2.17;;;20.40;49.70;;;;;;5033430;28;20388;-62
2022/05/31 13:44:37;;;;;;;6.97;2.67;;;20.40;50.30;;;;;;5033169;28;20071;-62
2022/05/31 13:47:06;;;;;;;5.60;2.50;;;20.30;52.00;;;;;;5033287;28;20112;-62